Location Glendale, AZ, US

ob KWR6634 261515Z AUTO 31003G04KT OVC200 25/05 A2975 RMK SLPNO 

2018.05.26 1515 UTC
Wind from the NW (311 degrees) at 4.0 MPH (3 KT) gusting to 5.0 MPH (4 KT)
Visibility    Mile(s)
Sky Conditions  overcast
Temperature 76.50 F (25 C)
Dew Point 41.00 F (5 C)
Relative Humidity 28%
Pressure   29.75 in. Hg (1007 hPa)
Rain  0.00 in.
Daily Rain  in.

Station Name  My Glendale Arizona Weather Station
Longitude, Latitude  -112.20133199999998, 33.58645
Elevation 1180
Station URL www.myglendalewxs.com
Software Type VWS V15.00